sensor_id;sensor_type;location;lat;lon;timestamp;P1;durP1;ratioP1;P2;durP2;ratioP2
4517;SDS011;2271;49.464;11.070;2022-12-18T00:01:41;37.83;;;15.90;;
4517;SDS011;2271;49.464;11.070;2022-12-18T00:04:07;33.17;;;14.83;;
4517;SDS011;2271;49.464;11.070;2022-12-18T00:06:38;34.23;;;16.73;;
4517;SDS011;2271;49.464;11.070;2022-12-18T00:09:04;31.47;;;15.43;;
4517;SDS011;2271;49.464;11.070;2022-12-18T00:11:30;34.47;;;16.53;;
4517;SDS011;2271;49.464;11.070;2022-12-18T00:13:56;29.63;;;16.57;;
4517;SDS011;2271;49.464;11.070;2022-12-18T00:16:24;33.97;;;18.20;;
4517;SDS011;2271;49.464;11.070;2022-12-18T00:18:51;35.60;;;16.87;;
4517;SDS011;2271;49.464;11.070;2022-12-18T00:21:19;36.17;;;18.30;;
4517;SDS011;2271;49.464;11.070;2022-12-18T00:23:45;34.20;;;19.83;;
4517;SDS011;2271;49.464;11.070;2022-12-18T00:26:16;44.60;;;25.83;;
4517;SDS011;2271;49.464;11.070;2022-12-18T00:28:50;38.63;;;20.47;;
4517;SDS011;2271;49.464;11.070;2022-12-18T00:31:17;42.67;;;21.77;;
4517;SDS011;2271;49.464;11.070;2022-12-18T00:33:45;44.80;;;22.27;;
4517;SDS011;2271;49.464;11.070;2022-12-18T00:36:14;37.43;;;20.77;;
4517;SDS011;2271;49.464;11.070;2022-12-18T00:38:44;32.50;;;17.13;;
4517;SDS011;2271;49.464;11.070;2022-12-18T00:41:11;35.10;;;17.53;;
4517;SDS011;2271;49.464;11.070;2022-12-18T00:43:38;36.70;;;21.10;;
4517;SDS011;2271;49.464;11.070;2022-12-18T00:46:04;32.43;;;18.30;;
4517;SDS011;2271;49.464;11.070;2022-12-18T00:48:31;20.67;;;10.70;;
4517;SDS011;2271;49.464;11.070;2022-12-18T00:50:57;18.80;;;9.77;;
4517;SDS011;2271;49.464;11.070;2022-12-18T00:53:22;17.53;;;9.70;;
4517;SDS011;2271;49.464;11.070;2022-12-18T00:55:48;19.60;;;9.20;;
4517;SDS011;2271;49.464;11.070;2022-12-18T00:58:14;16.80;;;9.70;;
4517;SDS011;2271;49.464;11.070;2022-12-18T01:00:42;18.30;;;9.83;;
4517;SDS011;2271;49.464;11.070;2022-12-18T01:03:08;22.93;;;11.10;;
4517;SDS011;2271;49.464;11.070;2022-12-18T01:05:39;25.17;;;11.27;;
4517;SDS011;2271;49.464;11.070;2022-12-18T01:08:05;25.67;;;10.77;;
4517;SDS011;2271;49.464;11.070;2022-12-18T01:10:31;22.87;;;10.17;;
4517;SDS011;2271;49.464;11.070;2022-12-18T01:12:57;16.27;;;9.17;;
4517;SDS011;2271;49.464;11.070;2022-12-18T01:15:22;19.00;;;10.37;;
4517;SDS011;2271;49.464;11.070;2022-12-18T01:17:48;20.57;;;10.73;;
4517;SDS011;2271;49.464;11.070;2022-12-18T01:20:13;20.37;;;10.43;;
4517;SDS011;2271;49.464;11.070;2022-12-18T01:22:39;20.80;;;10.67;;
4517;SDS011;2271;49.464;11.070;2022-12-18T01:25:05;23.77;;;11.03;;
4517;SDS011;2271;49.464;11.070;2022-12-18T01:27:32;18.33;;;10.17;;
4517;SDS011;2271;49.464;11.070;2022-12-18T01:29:58;18.53;;;9.07;;
4517;SDS011;2271;49.464;11.070;2022-12-18T01:32:24;24.83;;;12.20;;
4517;SDS011;2271;49.464;11.070;2022-12-18T01:34:50;24.70;;;12.33;;
4517;SDS011;2271;49.464;11.070;2022-12-18T01:37:15;18.83;;;11.57;;
4517;SDS011;2271;49.464;11.070;2022-12-18T01:39:41;27.37;;;12.30;;
4517;SDS011;2271;49.464;11.070;2022-12-18T01:42:13;24.80;;;13.47;;
4517;SDS011;2271;49.464;11.070;2022-12-18T01:49:58;29.50;;;15.07;;
4517;SDS011;2271;49.464;11.070;2022-12-18T01:52:28;31.37;;;15.27;;
4517;SDS011;2271;49.464;11.070;2022-12-18T01:54:56;20.57;;;11.97;;
4517;SDS011;2271;49.464;11.070;2022-12-18T01:57:23;24.83;;;13.30;;
4517;SDS011;2271;49.464;11.070;2022-12-18T01:59:52;24.83;;;13.60;;
4517;SDS011;2271;49.464;11.070;2022-12-18T02:02:20;28.87;;;13.67;;
4517;SDS011;2271;49.464;11.070;2022-12-18T02:04:47;30.23;;;14.13;;
4517;SDS011;2271;49.464;11.070;2022-12-18T02:07:29;25.13;;;13.43;;
4517;SDS011;2271;49.464;11.070;2022-12-18T02:12:36;27.60;;;14.50;;
4517;SDS011;2271;49.464;11.070;2022-12-18T02:17:56;27.10;;;14.07;;
4517;SDS011;2271;49.464;11.070;2022-12-18T02:20:34;29.37;;;14.70;;
4517;SDS011;2271;49.464;11.070;2022-12-18T02:28:20;28.27;;;14.47;;
4517;SDS011;2271;49.464;11.070;2022-12-18T02:30:50;27.67;;;15.37;;
4517;SDS011;2271;49.464;11.070;2022-12-18T02:33:21;35.87;;;15.30;;
4517;SDS011;2271;49.464;11.070;2022-12-18T02:35:48;27.00;;;13.80;;
4517;SDS011;2271;49.464;11.070;2022-12-18T02:38:16;24.40;;;13.60;;
4517;SDS011;2271;49.464;11.070;2022-12-18T02:40:42;36.90;;;15.50;;
4517;SDS011;2271;49.464;11.070;2022-12-18T02:43:10;30.20;;;14.53;;
4517;SDS011;2271;49.464;11.070;2022-12-18T02:45:47;31.63;;;14.37;;
4517;SDS011;2271;49.464;11.070;2022-12-18T02:48:15;34.97;;;15.27;;
4517;SDS011;2271;49.464;11.070;2022-12-18T02:50:45;33.47;;;15.30;;
4517;SDS011;2271;49.464;11.070;2022-12-18T02:53:31;27.63;;;13.60;;
4517;SDS011;2271;49.464;11.070;2022-12-18T02:56:07;31.07;;;13.80;;
4517;SDS011;2271;49.464;11.070;2022-12-18T03:01:17;29.83;;;14.53;;
4517;SDS011;2271;49.464;11.070;2022-12-18T03:03:56;32.70;;;13.87;;
4517;SDS011;2271;49.464;11.070;2022-12-18T03:06:30;35.13;;;14.10;;
4517;SDS011;2271;49.464;11.070;2022-12-18T03:09:04;31.90;;;12.60;;
4517;SDS011;2271;49.464;11.070;2022-12-18T03:11:39;27.77;;;14.57;;
4517;SDS011;2271;49.464;11.070;2022-12-18T03:14:28;21.83;;;11.27;;
4517;SDS011;2271;49.464;11.070;2022-12-18T03:16:57;28.30;;;13.07;;
4517;SDS011;2271;49.464;11.070;2022-12-18T03:19:26;25.40;;;13.40;;
4517;SDS011;2271;49.464;11.070;2022-12-18T03:21:55;28.07;;;14.53;;
4517;SDS011;2271;49.464;11.070;2022-12-18T03:24:23;24.63;;;11.80;;
4517;SDS011;2271;49.464;11.070;2022-12-18T03:26:52;25.90;;;13.57;;
4517;SDS011;2271;49.464;11.070;2022-12-18T03:29:24;27.00;;;12.07;;
4517;SDS011;2271;49.464;11.070;2022-12-18T03:31:55;24.43;;;12.07;;
4517;SDS011;2271;49.464;11.070;2022-12-18T03:34:28;21.37;;;11.27;;
4517;SDS011;2271;49.464;11.070;2022-12-18T03:36:55;29.37;;;11.67;;
4517;SDS011;2271;49.464;11.070;2022-12-18T03:39:22;24.37;;;11.93;;
4517;SDS011;2271;49.464;11.070;2022-12-18T03:41:53;24.53;;;11.67;;
4517;SDS011;2271;49.464;11.070;2022-12-18T03:47:09;22.63;;;12.63;;
4517;SDS011;2271;49.464;11.070;2022-12-18T03:50:17;26.83;;;12.23;;
4517;SDS011;2271;49.464;11.070;2022-12-18T03:55:29;28.53;;;12.17;;
4517;SDS011;2271;49.464;11.070;2022-12-18T03:57:58;35.53;;;13.00;;
4517;SDS011;2271;49.464;11.070;2022-12-18T04:00:26;26.40;;;11.60;;
4517;SDS011;2271;49.464;11.070;2022-12-18T04:02:54;31.00;;;12.17;;
4517;SDS011;2271;49.464;11.070;2022-12-18T04:05:22;28.13;;;11.93;;
4517;SDS011;2271;49.464;11.070;2022-12-18T04:07:49;32.60;;;13.27;;
4517;SDS011;2271;49.464;11.070;2022-12-18T04:10:16;25.87;;;11.77;;
4517;SDS011;2271;49.464;11.070;2022-12-18T04:12:42;34.67;;;13.13;;
4517;SDS011;2271;49.464;11.070;2022-12-18T04:15:08;26.57;;;13.53;;
4517;SDS011;2271;49.464;11.070;2022-12-18T04:17:35;30.17;;;12.87;;
4517;SDS011;2271;49.464;11.070;2022-12-18T04:20:01;32.03;;;12.90;;
4517;SDS011;2271;49.464;11.070;2022-12-18T04:22:27;18.20;;;10.50;;
4517;SDS011;2271;49.464;11.070;2022-12-18T04:24:52;26.90;;;13.03;;
4517;SDS011;2271;49.464;11.070;2022-12-18T04:27:18;26.37;;;11.90;;
4517;SDS011;2271;49.464;11.070;2022-12-18T04:29:43;19.07;;;9.77;;
4517;SDS011;2271;49.464;11.070;2022-12-18T04:32:09;25.80;;;13.27;;
4517;SDS011;2271;49.464;11.070;2022-12-18T04:34:35;29.27;;;13.90;;
4517;SDS011;2271;49.464;11.070;2022-12-18T04:37:00;25.57;;;11.50;;
4517;SDS011;2271;49.464;11.070;2022-12-18T04:39:26;22.93;;;12.43;;
4517;SDS011;2271;49.464;11.070;2022-12-18T04:41:51;22.33;;;10.77;;
4517;SDS011;2271;49.464;11.070;2022-12-18T04:44:17;24.77;;;11.93;;
4517;SDS011;2271;49.464;11.070;2022-12-18T04:46:43;22.20;;;11.20;;
4517;SDS011;2271;49.464;11.070;2022-12-18T04:49:08;24.97;;;11.10;;
4517;SDS011;2271;49.464;11.070;2022-12-18T04:51:35;21.40;;;10.60;;
4517;SDS011;2271;49.464;11.070;2022-12-18T04:54:01;21.47;;;11.20;;
4517;SDS011;2271;49.464;11.070;2022-12-18T04:56:27;20.87;;;11.90;;
4517;SDS011;2271;49.464;11.070;2022-12-18T04:58:52;21.23;;;10.87;;
4517;SDS011;2271;49.464;11.070;2022-12-18T05:01:18;23.20;;;11.20;;
4517;SDS011;2271;49.464;11.070;2022-12-18T05:03:44;22.43;;;10.27;;
4517;SDS011;2271;49.464;11.070;2022-12-18T05:06:10;27.30;;;12.03;;
4517;SDS011;2271;49.464;11.070;2022-12-18T05:08:35;23.73;;;9.87;;
4517;SDS011;2271;49.464;11.070;2022-12-18T05:11:02;22.33;;;10.80;;
4517;SDS011;2271;49.464;11.070;2022-12-18T05:13:28;19.20;;;9.63;;
4517;SDS011;2271;49.464;11.070;2022-12-18T05:15:55;21.50;;;10.93;;
4517;SDS011;2271;49.464;11.070;2022-12-18T05:18:22;22.90;;;11.73;;
4517;SDS011;2271;49.464;11.070;2022-12-18T05:20:48;22.60;;;10.90;;
4517;SDS011;2271;49.464;11.070;2022-12-18T05:23:17;25.00;;;11.23;;
4517;SDS011;2271;49.464;11.070;2022-12-18T05:25:47;29.00;;;11.87;;
4517;SDS011;2271;49.464;11.070;2022-12-18T05:28:15;20.10;;;11.07;;
4517;SDS011;2271;49.464;11.070;2022-12-18T05:30:41;28.00;;;13.47;;
4517;SDS011;2271;49.464;11.070;2022-12-18T05:33:06;25.00;;;10.77;;
4517;SDS011;2271;49.464;11.070;2022-12-18T05:35:32;23.13;;;12.17;;
4517;SDS011;2271;49.464;11.070;2022-12-18T05:37:58;21.83;;;11.10;;
4517;SDS011;2271;49.464;11.070;2022-12-18T05:40:23;20.70;;;11.47;;
4517;SDS011;2271;49.464;11.070;2022-12-18T05:42:49;33.90;;;12.90;;
4517;SDS011;2271;49.464;11.070;2022-12-18T05:45:14;27.47;;;12.67;;
4517;SDS011;2271;49.464;11.070;2022-12-18T05:47:40;21.87;;;11.23;;
4517;SDS011;2271;49.464;11.070;2022-12-18T05:50:06;29.07;;;10.87;;
4517;SDS011;2271;49.464;11.070;2022-12-18T05:52:32;20.33;;;10.10;;
4517;SDS011;2271;49.464;11.070;2022-12-18T05:54:58;23.97;;;11.43;;
4517;SDS011;2271;49.464;11.070;2022-12-18T05:57:24;23.43;;;10.70;;
4517;SDS011;2271;49.464;11.070;2022-12-18T05:59:49;31.33;;;11.47;;
4517;SDS011;2271;49.464;11.070;2022-12-18T06:02:15;20.40;;;9.90;;
4517;SDS011;2271;49.464;11.070;2022-12-18T06:04:41;29.20;;;11.67;;
4517;SDS011;2271;49.464;11.070;2022-12-18T06:07:07;29.20;;;11.97;;
4517;SDS011;2271;49.464;11.070;2022-12-18T06:09:32;26.57;;;12.93;;
4517;SDS011;2271;49.464;11.070;2022-12-18T06:11:58;23.77;;;10.87;;
4517;SDS011;2271;49.464;11.070;2022-12-18T06:14:23;27.23;;;12.53;;
4517;SDS011;2271;49.464;11.070;2022-12-18T06:16:52;25.70;;;11.37;;
4517;SDS011;2271;49.464;11.070;2022-12-18T06:19:18;25.70;;;12.67;;
4517;SDS011;2271;49.464;11.070;2022-12-18T06:21:43;28.10;;;13.23;;
4517;SDS011;2271;49.464;11.070;2022-12-18T06:24:09;24.97;;;10.80;;
4517;SDS011;2271;49.464;11.070;2022-12-18T06:26:36;23.43;;;11.93;;
4517;SDS011;2271;49.464;11.070;2022-12-18T06:29:03;19.80;;;9.90;;
4517;SDS011;2271;49.464;11.070;2022-12-18T06:31:29;31.47;;;12.87;;
4517;SDS011;2271;49.464;11.070;2022-12-18T06:33:55;22.47;;;10.83;;
4517;SDS011;2271;49.464;11.070;2022-12-18T06:36:21;26.90;;;10.00;;
4517;SDS011;2271;49.464;11.070;2022-12-18T06:38:46;20.53;;;10.77;;
4517;SDS011;2271;49.464;11.070;2022-12-18T06:41:14;23.93;;;10.57;;
4517;SDS011;2271;49.464;11.070;2022-12-18T06:43:41;18.37;;;10.17;;
4517;SDS011;2271;49.464;11.070;2022-12-18T06:46:07;25.13;;;11.50;;
4517;SDS011;2271;49.464;11.070;2022-12-18T06:48:34;25.60;;;11.67;;
4517;SDS011;2271;49.464;11.070;2022-12-18T06:50:59;23.83;;;10.17;;
4517;SDS011;2271;49.464;11.070;2022-12-18T06:53:25;19.23;;;10.47;;
4517;SDS011;2271;49.464;11.070;2022-12-18T06:55:51;24.00;;;10.53;;
4517;SDS011;2271;49.464;11.070;2022-12-18T06:58:17;20.17;;;11.07;;
4517;SDS011;2271;49.464;11.070;2022-12-18T07:00:43;16.93;;;10.67;;
4517;SDS011;2271;49.464;11.070;2022-12-18T07:03:08;32.00;;;13.03;;
4517;SDS011;2271;49.464;11.070;2022-12-18T07:05:34;24.27;;;10.70;;
4517;SDS011;2271;49.464;11.070;2022-12-18T07:08:04;29.67;;;12.53;;
4517;SDS011;2271;49.464;11.070;2022-12-18T07:10:29;24.00;;;11.13;;
4517;SDS011;2271;49.464;11.070;2022-12-18T07:12:55;25.27;;;13.63;;
4517;SDS011;2271;49.464;11.070;2022-12-18T07:15:21;25.77;;;10.20;;
4517;SDS011;2271;49.464;11.070;2022-12-18T07:17:46;23.60;;;10.83;;
4517;SDS011;2271;49.464;11.070;2022-12-18T07:20:12;25.87;;;10.67;;
4517;SDS011;2271;49.464;11.070;2022-12-18T07:22:37;24.73;;;11.43;;
4517;SDS011;2271;49.464;11.070;2022-12-18T07:25:03;33.60;;;13.60;;
4517;SDS011;2271;49.464;11.070;2022-12-18T07:27:29;29.50;;;13.00;;
4517;SDS011;2271;49.464;11.070;2022-12-18T07:29:55;30.07;;;13.97;;
4517;SDS011;2271;49.464;11.070;2022-12-18T07:32:21;27.77;;;14.53;;
4517;SDS011;2271;49.464;11.070;2022-12-18T07:34:46;25.10;;;10.83;;
4517;SDS011;2271;49.464;11.070;2022-12-18T07:37:12;28.73;;;11.80;;
4517;SDS011;2271;49.464;11.070;2022-12-18T07:39:38;20.43;;;9.90;;
4517;SDS011;2271;49.464;11.070;2022-12-18T07:42:03;25.77;;;11.80;;
4517;SDS011;2271;49.464;11.070;2022-12-18T07:44:47;26.53;;;11.90;;
4517;SDS011;2271;49.464;11.070;2022-12-18T07:47:13;27.83;;;11.07;;
4517;SDS011;2271;49.464;11.070;2022-12-18T07:49:39;26.53;;;12.07;;
4517;SDS011;2271;49.464;11.070;2022-12-18T07:52:04;29.83;;;13.80;;
4517;SDS011;2271;49.464;11.070;2022-12-18T07:54:30;30.43;;;12.60;;
4517;SDS011;2271;49.464;11.070;2022-12-18T07:56:55;25.97;;;12.23;;
4517;SDS011;2271;49.464;11.070;2022-12-18T07:59:21;29.63;;;11.23;;
4517;SDS011;2271;49.464;11.070;2022-12-18T08:01:47;30.30;;;12.60;;
4517;SDS011;2271;49.464;11.070;2022-12-18T08:04:12;26.90;;;11.53;;
4517;SDS011;2271;49.464;11.070;2022-12-18T08:06:38;27.37;;;11.43;;
4517;SDS011;2271;49.464;11.070;2022-12-18T08:09:03;21.17;;;9.83;;
4517;SDS011;2271;49.464;11.070;2022-12-18T08:11:29;23.20;;;10.83;;
4517;SDS011;2271;49.464;11.070;2022-12-18T08:13:55;24.60;;;11.53;;
4517;SDS011;2271;49.464;11.070;2022-12-18T08:16:21;26.03;;;11.47;;
4517;SDS011;2271;49.464;11.070;2022-12-18T08:18:48;23.80;;;11.80;;
4517;SDS011;2271;49.464;11.070;2022-12-18T08:21:17;23.90;;;11.53;;
4517;SDS011;2271;49.464;11.070;2022-12-18T08:23:48;25.97;;;13.20;;
4517;SDS011;2271;49.464;11.070;2022-12-18T08:26:15;27.57;;;11.83;;
4517;SDS011;2271;49.464;11.070;2022-12-18T08:28:41;28.13;;;10.97;;
4517;SDS011;2271;49.464;11.070;2022-12-18T08:31:07;23.77;;;11.37;;
4517;SDS011;2271;49.464;11.070;2022-12-18T08:33:34;25.30;;;10.77;;
4517;SDS011;2271;49.464;11.070;2022-12-18T08:36:00;24.07;;;11.67;;
4517;SDS011;2271;49.464;11.070;2022-12-18T08:38:26;26.13;;;11.97;;
4517;SDS011;2271;49.464;11.070;2022-12-18T08:40:59;28.13;;;11.33;;
4517;SDS011;2271;49.464;11.070;2022-12-18T08:43:25;22.03;;;9.97;;
4517;SDS011;2271;49.464;11.070;2022-12-18T08:46:09;24.93;;;11.03;;
4517;SDS011;2271;49.464;11.070;2022-12-18T08:48:35;28.97;;;12.03;;
4517;SDS011;2271;49.464;11.070;2022-12-18T08:51:01;30.90;;;12.73;;
4517;SDS011;2271;49.464;11.070;2022-12-18T08:53:27;20.97;;;11.03;;
4517;SDS011;2271;49.464;11.070;2022-12-18T08:55:52;30.30;;;11.63;;
4517;SDS011;2271;49.464;11.070;2022-12-18T08:58:18;33.97;;;13.70;;
4517;SDS011;2271;49.464;11.070;2022-12-18T09:00:44;21.10;;;10.30;;
4517;SDS011;2271;49.464;11.070;2022-12-18T09:03:16;27.97;;;11.80;;
4517;SDS011;2271;49.464;11.070;2022-12-18T09:05:43;23.00;;;11.17;;
4517;SDS011;2271;49.464;11.070;2022-12-18T09:08:10;22.33;;;12.40;;
4517;SDS011;2271;49.464;11.070;2022-12-18T09:10:42;20.07;;;10.47;;
4517;SDS011;2271;49.464;11.070;2022-12-18T09:13:13;26.70;;;12.40;;
4517;SDS011;2271;49.464;11.070;2022-12-18T09:15:42;32.57;;;13.30;;
4517;SDS011;2271;49.464;11.070;2022-12-18T09:18:10;27.73;;;11.93;;
4517;SDS011;2271;49.464;11.070;2022-12-18T09:20:36;22.90;;;12.03;;
4517;SDS011;2271;49.464;11.070;2022-12-18T09:23:02;27.47;;;12.47;;
4517;SDS011;2271;49.464;11.070;2022-12-18T09:25:29;20.93;;;10.60;;
4517;SDS011;2271;49.464;11.070;2022-12-18T09:28:01;29.57;;;10.57;;
4517;SDS011;2271;49.464;11.070;2022-12-18T09:30:28;20.90;;;9.97;;
4517;SDS011;2271;49.464;11.070;2022-12-18T09:32:54;21.97;;;10.77;;
4517;SDS011;2271;49.464;11.070;2022-12-18T09:35:19;21.57;;;10.43;;
4517;SDS011;2271;49.464;11.070;2022-12-18T09:37:45;23.83;;;11.30;;
4517;SDS011;2271;49.464;11.070;2022-12-18T09:40:14;22.37;;;10.50;;
4517;SDS011;2271;49.464;11.070;2022-12-18T09:42:44;19.50;;;9.57;;
4517;SDS011;2271;49.464;11.070;2022-12-18T09:45:13;23.13;;;12.17;;
4517;SDS011;2271;49.464;11.070;2022-12-18T09:47:41;24.23;;;10.43;;
4517;SDS011;2271;49.464;11.070;2022-12-18T09:52:57;22.17;;;9.63;;
4517;SDS011;2271;49.464;11.070;2022-12-18T09:55:36;23.43;;;10.37;;
4517;SDS011;2271;49.464;11.070;2022-12-18T10:00:42;22.10;;;10.30;;
4517;SDS011;2271;49.464;11.070;2022-12-18T10:03:11;22.13;;;11.17;;
4517;SDS011;2271;49.464;11.070;2022-12-18T10:10:52;22.27;;;10.47;;
4517;SDS011;2271;49.464;11.070;2022-12-18T10:16:09;17.07;;;9.57;;
4517;SDS011;2271;49.464;11.070;2022-12-18T10:21:45;26.77;;;11.13;;
4517;SDS011;2271;49.464;11.070;2022-12-18T10:24:19;20.63;;;10.50;;
4517;SDS011;2271;49.464;11.070;2022-12-18T10:26:58;20.03;;;10.20;;
4517;SDS011;2271;49.464;11.070;2022-12-18T10:29:34;20.90;;;9.40;;
4517;SDS011;2271;49.464;11.070;2022-12-18T10:32:00;21.73;;;10.47;;
4517;SDS011;2271;49.464;11.070;2022-12-18T10:34:25;21.40;;;9.97;;
4517;SDS011;2271;49.464;11.070;2022-12-18T10:36:51;19.57;;;8.63;;
4517;SDS011;2271;49.464;11.070;2022-12-18T10:39:20;19.67;;;9.60;;
4517;SDS011;2271;49.464;11.070;2022-12-18T10:41:56;20.37;;;8.87;;
4517;SDS011;2271;49.464;11.070;2022-12-18T10:44:44;17.77;;;10.17;;
4517;SDS011;2271;49.464;11.070;2022-12-18T10:47:17;19.60;;;9.07;;
4517;SDS011;2271;49.464;11.070;2022-12-18T10:49:47;18.83;;;9.80;;
4517;SDS011;2271;49.464;11.070;2022-12-18T10:52:19;22.40;;;12.07;;
4517;SDS011;2271;49.464;11.070;2022-12-18T10:57:32;38.33;;;17.00;;
4517;SDS011;2271;49.464;11.070;2022-12-18T11:02:52;17.73;;;9.60;;
4517;SDS011;2271;49.464;11.070;2022-12-18T11:05:31;24.03;;;11.33;;
4517;SDS011;2271;49.464;11.070;2022-12-18T11:07:59;22.87;;;12.13;;
4517;SDS011;2271;49.464;11.070;2022-12-18T11:10:30;20.77;;;10.53;;
4517;SDS011;2271;49.464;11.070;2022-12-18T11:13:19;23.33;;;9.77;;
4517;SDS011;2271;49.464;11.070;2022-12-18T11:15:45;27.20;;;10.93;;
4517;SDS011;2271;49.464;11.070;2022-12-18T11:18:25;25.33;;;10.47;;
4517;SDS011;2271;49.464;11.070;2022-12-18T11:20:57;23.60;;;8.93;;
4517;SDS011;2271;49.464;11.070;2022-12-18T11:23:32;25.00;;;10.93;;
4517;SDS011;2271;49.464;11.070;2022-12-18T11:25:59;30.10;;;11.93;;
4517;SDS011;2271;49.464;11.070;2022-12-18T11:28:37;24.73;;;11.20;;
4517;SDS011;2271;49.464;11.070;2022-12-18T11:31:16;18.53;;;9.30;;
4517;SDS011;2271;49.464;11.070;2022-12-18T11:33:53;22.07;;;11.47;;
4517;SDS011;2271;49.464;11.070;2022-12-18T11:36:25;24.47;;;9.90;;
4517;SDS011;2271;49.464;11.070;2022-12-18T11:38:55;27.67;;;9.03;;
4517;SDS011;2271;49.464;11.070;2022-12-18T11:41:26;19.73;;;7.97;;
4517;SDS011;2271;49.464;11.070;2022-12-18T11:44:22;21.00;;;9.40;;
4517;SDS011;2271;49.464;11.070;2022-12-18T11:46:55;19.57;;;9.37;;
4517;SDS011;2271;49.464;11.070;2022-12-18T11:49:33;24.43;;;9.47;;
4517;SDS011;2271;49.464;11.070;2022-12-18T11:54:43;20.60;;;9.83;;
4517;SDS011;2271;49.464;11.070;2022-12-18T12:00:18;18.83;;;9.63;;
4517;SDS011;2271;49.464;11.070;2022-12-18T12:05:49;21.37;;;10.17;;
4517;SDS011;2271;49.464;11.070;2022-12-18T12:14:12;23.77;;;11.43;;
4517;SDS011;2271;49.464;11.070;2022-12-18T12:30:44;22.03;;;10.80;;
4517;SDS011;2271;49.464;11.070;2022-12-18T12:36:15;28.80;;;12.57;;
4517;SDS011;2271;49.464;11.070;2022-12-18T12:38:58;26.90;;;12.17;;
4517;SDS011;2271;49.464;11.070;2022-12-18T12:41:30;29.93;;;14.23;;
4517;SDS011;2271;49.464;11.070;2022-12-18T12:44:28;31.53;;;13.97;;
4517;SDS011;2271;49.464;11.070;2022-12-18T12:46:59;27.60;;;11.17;;
4517;SDS011;2271;49.464;11.070;2022-12-18T12:49:30;25.60;;;11.57;;
4517;SDS011;2271;49.464;11.070;2022-12-18T12:52:10;27.73;;;11.17;;
4517;SDS011;2271;49.464;11.070;2022-12-18T12:54:58;26.80;;;11.80;;
4517;SDS011;2271;49.464;11.070;2022-12-18T12:57:31;30.03;;;13.63;;
4517;SDS011;2271;49.464;11.070;2022-12-18T13:07:57;20.10;;;10.53;;
4517;SDS011;2271;49.464;11.070;2022-12-18T13:10:25;32.67;;;12.40;;
4517;SDS011;2271;49.464;11.070;2022-12-18T13:16:18;31.97;;;13.10;;
4517;SDS011;2271;49.464;11.070;2022-12-18T13:18:31;20.67;;;10.63;;
4517;SDS011;2271;49.464;11.070;2022-12-18T13:30:59;28.37;;;11.80;;
4517;SDS011;2271;49.464;11.070;2022-12-18T13:35:55;27.37;;;12.07;;
4517;SDS011;2271;49.464;11.070;2022-12-18T13:41:51;24.97;;;9.83;;
4517;SDS011;2271;49.464;11.070;2022-12-18T13:44:24;22.17;;;11.17;;
4517;SDS011;2271;49.464;11.070;2022-12-18T13:46:55;21.13;;;9.87;;
4517;SDS011;2271;49.464;11.070;2022-12-18T13:49:26;23.40;;;10.03;;
4517;SDS011;2271;49.464;11.070;2022-12-18T13:51:59;19.30;;;10.27;;
4517;SDS011;2271;49.464;11.070;2022-12-18T13:54:39;26.03;;;11.07;;
4517;SDS011;2271;49.464;11.070;2022-12-18T13:57:25;22.27;;;9.60;;
4517;SDS011;2271;49.464;11.070;2022-12-18T13:59:52;19.10;;;9.00;;
4517;SDS011;2271;49.464;11.070;2022-12-18T14:02:21;20.53;;;11.70;;
4517;SDS011;2271;49.464;11.070;2022-12-18T14:04:48;21.03;;;10.00;;
4517;SDS011;2271;49.464;11.070;2022-12-18T14:07:15;21.10;;;9.50;;
4517;SDS011;2271;49.464;11.070;2022-12-18T14:09:45;22.03;;;11.70;;
4517;SDS011;2271;49.464;11.070;2022-12-18T14:12:20;25.13;;;10.77;;
4517;SDS011;2271;49.464;11.070;2022-12-18T14:15:26;21.60;;;9.67;;
4517;SDS011;2271;49.464;11.070;2022-12-18T14:18:02;20.63;;;9.07;;
4517;SDS011;2271;49.464;11.070;2022-12-18T14:20:34;23.80;;;11.93;;
4517;SDS011;2271;49.464;11.070;2022-12-18T14:23:00;23.53;;;11.33;;
4517;SDS011;2271;49.464;11.070;2022-12-18T14:25:29;19.20;;;10.93;;
4517;SDS011;2271;49.464;11.070;2022-12-18T14:28:12;22.10;;;11.10;;
4517;SDS011;2271;49.464;11.070;2022-12-18T14:30:41;18.93;;;11.00;;
4517;SDS011;2271;49.464;11.070;2022-12-18T14:35:34;23.87;;;11.17;;
4517;SDS011;2271;49.464;11.070;2022-12-18T14:40:51;24.43;;;11.60;;
4517;SDS011;2271;49.464;11.070;2022-12-18T14:43:28;27.70;;;11.50;;
4517;SDS011;2271;49.464;11.070;2022-12-18T14:45:57;24.33;;;12.73;;
4517;SDS011;2271;49.464;11.070;2022-12-18T14:51:17;23.83;;;11.07;;
4517;SDS011;2271;49.464;11.070;2022-12-18T14:56:44;20.80;;;9.20;;
4517;SDS011;2271;49.464;11.070;2022-12-18T14:59:21;24.23;;;12.43;;
4517;SDS011;2271;49.464;11.070;2022-12-18T15:04:24;24.50;;;13.77;;
4517;SDS011;2271;49.464;11.070;2022-12-18T15:09:37;28.93;;;13.33;;
4517;SDS011;2271;49.464;11.070;2022-12-18T15:12:04;53.17;;;17.30;;
4517;SDS011;2271;49.464;11.070;2022-12-18T15:14:42;39.37;;;17.47;;
4517;SDS011;2271;49.464;11.070;2022-12-18T15:17:18;35.40;;;15.57;;
4517;SDS011;2271;49.464;11.070;2022-12-18T15:19:47;43.00;;;17.30;;
4517;SDS011;2271;49.464;11.070;2022-12-18T15:22:22;42.70;;;17.67;;
4517;SDS011;2271;49.464;11.070;2022-12-18T15:24:53;37.20;;;16.13;;
4517;SDS011;2271;49.464;11.070;2022-12-18T15:27:37;20.23;;;11.13;;
4517;SDS011;2271;49.464;11.070;2022-12-18T15:32:32;26.10;;;12.43;;
4517;SDS011;2271;49.464;11.070;2022-12-18T15:35:18;26.80;;;12.03;;
4517;SDS011;2271;49.464;11.070;2022-12-18T15:37:50;24.47;;;11.47;;
4517;SDS011;2271;49.464;11.070;2022-12-18T15:40:25;25.90;;;14.57;;
4517;SDS011;2271;49.464;11.070;2022-12-18T15:42:52;24.90;;;11.03;;
4517;SDS011;2271;49.464;11.070;2022-12-18T15:45:38;21.17;;;10.83;;
4517;SDS011;2271;49.464;11.070;2022-12-18T15:48:20;20.33;;;11.87;;
4517;SDS011;2271;49.464;11.070;2022-12-18T15:50:47;25.40;;;11.17;;
4517;SDS011;2271;49.464;11.070;2022-12-18T15:53:14;25.40;;;11.67;;
4517;SDS011;2271;49.464;11.070;2022-12-18T15:55:40;25.63;;;10.80;;
4517;SDS011;2271;49.464;11.070;2022-12-18T15:58:24;16.60;;;10.13;;
4517;SDS011;2271;49.464;11.070;2022-12-18T16:00:49;22.50;;;10.20;;
4517;SDS011;2271;49.464;11.070;2022-12-18T16:03:15;14.90;;;9.20;;
4517;SDS011;2271;49.464;11.070;2022-12-18T16:05:41;23.47;;;11.10;;
4517;SDS011;2271;49.464;11.070;2022-12-18T16:08:06;19.00;;;10.57;;
4517;SDS011;2271;49.464;11.070;2022-12-18T16:10:32;20.43;;;10.87;;
4517;SDS011;2271;49.464;11.070;2022-12-18T16:12:57;28.17;;;11.80;;
4517;SDS011;2271;49.464;11.070;2022-12-18T16:15:23;21.47;;;12.50;;
4517;SDS011;2271;49.464;11.070;2022-12-18T16:17:49;18.33;;;10.80;;
4517;SDS011;2271;49.464;11.070;2022-12-18T16:20:15;29.30;;;10.63;;
4517;SDS011;2271;49.464;11.070;2022-12-18T16:22:43;20.80;;;11.73;;
4517;SDS011;2271;49.464;11.070;2022-12-18T16:25:23;21.37;;;11.00;;
4517;SDS011;2271;49.464;11.070;2022-12-18T16:27:53;22.80;;;10.57;;
4517;SDS011;2271;49.464;11.070;2022-12-18T16:30:23;23.37;;;11.13;;
4517;SDS011;2271;49.464;11.070;2022-12-18T16:32:52;20.80;;;10.87;;
4517;SDS011;2271;49.464;11.070;2022-12-18T16:35:21;21.27;;;10.73;;
4517;SDS011;2271;49.464;11.070;2022-12-18T16:37:49;23.87;;;12.23;;
4517;SDS011;2271;49.464;11.070;2022-12-18T16:40:16;26.37;;;11.87;;
4517;SDS011;2271;49.464;11.070;2022-12-18T16:42:43;25.17;;;12.57;;
4517;SDS011;2271;49.464;11.070;2022-12-18T16:45:12;18.73;;;10.23;;
4517;SDS011;2271;49.464;11.070;2022-12-18T16:47:40;25.07;;;11.03;;
4517;SDS011;2271;49.464;11.070;2022-12-18T16:50:06;20.07;;;10.93;;
4517;SDS011;2271;49.464;11.070;2022-12-18T16:52:32;22.80;;;12.07;;